Strona główna
METAR-TAF:

METAR-TAF

Lotnisko :

Bolton Field

Columbus, Ohio, Stany Zjednoczone

Szerokość geograficzna: 39-54-03N, Długość geograficzna: 083-08-14W, wysokość: 276 m

Aktualna obserwacja pogody

Raport powstał 11 minut temu, godzina 06:15 UTC
Wiatr 5 kt od południowy wschód
Temperatura 21°C
Wilgotność 83%
Ciśnienie 1016 hPa
Widzialność: 16.1 km
Rozproszone chmury na wysokości 11000 ft
słaby mżawka

METAR: KTZR 280615Z AUTO 14005KT 10SM -DZ SCT110 21/18 A3000 RMK AO2 T02090175

czas: 02:26 (06:26 UTC)


TAF: brakujący

Obserwacja i prognoza pogody dla ponad 4000 lotnisk (raport METAR i TAF).

Dostępne stacje oznaczono żółtymi i czerwonymi punktami na mapie.

Najedź kursorem aby zobaczyć nazwę stacji.

Kliknij aby zobaczyć obserwacje i prognozy pogody.

Aby zmienić mapę: kliknij na zielony przycisk z czarnym krzyżykiem, aby powiększyć; na zielony przycisk z myślnikiem, aby pomniejszyć; na zielone strzałki, aby przejść do map sąsiednich.


METAR-TAF: